Time;durP1;ratioP1;P1;durP2;ratioP2;P2;SDS_P1;SDS_P2;PMS_P1;PMS_P2;Temp;Humidity;BMP_temperature;BMP_pressure;BME280_temperature;BME280_humidity;BME280_pressure;Samples;Min_cycle;Max_cycle;Signal;HPM_P1;HPM_P2
2022/09/16 00:00:35;;;;;;;10.23;1.83;;;14.90;99.90;;;;;;5058018;28;20052;-54
2022/09/16 00:03:02;;;;;;;10.13;2.15;;;14.90;99.90;;;;;;5058728;28;20033;-54
2022/09/16 00:05:28;;;;;;;9.05;1.90;;;14.80;99.90;;;;;;5057105;28;20032;-55
2022/09/16 00:07:54;;;;;;;7.38;1.58;;;14.80;99.90;;;;;;5058915;28;20029;-55
2022/09/16 00:10:21;;;;;;;5.35;1.63;;;14.90;99.90;;;;;;5058276;28;20075;-55
2022/09/16 00:12:48;;;;;;;9.05;2.00;;;14.90;99.90;;;;;;5058193;28;20091;-55
2022/09/16 00:15:13;;;;;;;8.38;1.90;;;15.00;99.90;;;;;;5058262;28;20079;-55
2022/09/16 00:17:39;;;;;;;8.23;1.98;;;14.90;99.90;;;;;;5058517;28;20025;-55
2022/09/16 00:20:06;;;;;;;8.20;1.58;;;14.70;99.90;;;;;;5058093;28;20086;-54
2022/09/16 00:22:32;;;;;;;8.52;1.58;;;14.60;99.90;;;;;;5058610;28;20040;-55
2022/09/16 00:24:57;;;;;;;7.20;1.55;;;14.50;99.90;;;;;;5057428;28;20033;-55
2022/09/16 00:27:23;;;;;;;8.23;1.70;;;14.50;99.90;;;;;;5057975;28;20044;-55
2022/09/16 00:29:49;;;;;;;6.75;1.90;;;14.50;99.90;;;;;;5058025;28;20021;-55
2022/09/16 00:32:15;;;;;;;6.65;1.80;;;14.50;99.90;;;;;;5057783;28;20086;-55
2022/09/16 00:34:40;;;;;;;7.38;1.65;;;14.40;99.90;;;;;;5057589;28;20096;-56
2022/09/16 00:37:07;;;;;;;8.98;2.20;;;14.40;99.90;;;;;;5057242;28;20087;-55
2022/09/16 00:39:33;;;;;;;4.97;1.33;;;14.30;99.90;;;;;;5057629;28;20024;-55
2022/09/16 00:42:00;;;;;;;9.73;1.77;;;14.30;99.90;;;;;;5056796;28;20025;-55
2022/09/16 00:45:02;;;;;;;7.85;1.75;;;14.40;99.90;;;;;;5057096;28;20090;-54
2022/09/16 00:47:58;;;;;;;8.02;1.48;;;14.40;99.90;;;;;;5056679;28;20497;-55
2022/09/16 00:50:37;;;;;;;8.55;1.70;;;14.30;99.90;;;;;;5056625;28;20059;-56
2022/09/16 00:53:08;;;;;;;6.78;1.40;;;14.20;99.90;;;;;;5056789;28;20075;-54
2022/09/16 00:55:36;;;;;;;7.07;1.70;;;14.20;99.90;;;;;;5057341;28;20028;-54
2022/09/16 00:58:09;;;;;;;7.97;1.95;;;14.20;99.90;;;;;;5058092;28;20033;-54
2022/09/16 01:00:38;;;;;;;8.05;1.80;;;14.30;99.90;;;;;;5056980;28;20037;-55
2022/09/16 01:03:05;;;;;;;3.78;1.50;;;14.20;99.90;;;;;;5055836;28;20048;-54
2022/09/16 01:05:30;;;;;;;9.30;2.28;;;14.10;99.90;;;;;;5056384;28;20396;-54
2022/09/16 01:07:57;;;;;;;7.82;2.13;;;14.00;99.90;;;;;;5056737;28;20038;-55
2022/09/16 01:10:24;;;;;;;9.60;2.15;;;14.00;99.90;;;;;;5056796;28;20032;-54
2022/09/16 01:12:55;;;;;;;10.02;1.98;;;14.00;99.90;;;;;;5056680;28;20032;-55
2022/09/16 01:15:35;;;;;;;12.05;2.63;;;13.90;99.90;;;;;;5056430;28;20037;-55
2022/09/16 01:18:14;;;;;;;14.35;2.10;;;13.90;99.90;;;;;;5056780;28;20036;-55
2022/09/16 01:21:02;;;;;;;13.68;2.20;;;13.90;99.90;;;;;;5056233;28;20014;-54
2022/09/16 01:23:40;;;;;;;6.50;2.45;;;14.10;99.90;;;;;;5054974;28;20036;-55
2022/09/16 01:26:29;;;;;;;7.32;2.10;;;14.20;99.90;;;;;;5056797;28;20048;-54
2022/09/16 01:29:13;;;;;;;10.52;2.40;;;14.10;99.90;;;;;;5056316;28;20056;-54
2022/09/16 01:32:40;;;;;;;5.72;2.00;;;14.00;99.90;;;;;;5056627;28;20029;-54
2022/09/16 01:35:31;;;;;;;7.35;2.03;;;13.80;99.90;;;;;;4994969;28;20113;-54
2022/09/16 01:37:57;;;;;;;6.40;1.95;;;13.80;99.90;;;;;;4994547;28;20030;-54
2022/09/16 01:40:22;;;;;;;12.52;2.10;;;13.80;99.90;;;;;;5033703;28;20119;-54
2022/09/16 01:43:23;;;;;;;11.13;2.03;;;13.80;99.90;;;;;;5056253;28;20033;-55
2022/09/16 01:45:59;;;;;;;13.30;2.03;;;13.70;99.90;;;;;;5056497;28;20513;-54
2022/09/16 01:48:33;;;;;;;5.80;1.77;;;13.60;99.90;;;;;;5056164;28;20389;-54
2022/09/16 01:51:21;;;;;;;8.48;2.60;;;13.60;99.90;;;;;;5055837;28;20025;-55
2022/09/16 01:54:29;;;;;;;8.20;1.80;;;13.60;99.90;;;;;;5056453;28;20068;-53
2022/09/16 01:57:16;;;;;;;6.75;1.60;;;13.60;99.90;;;;;;5013869;28;20042;-55
2022/09/16 01:59:57;;;;;;;7.70;1.80;;;13.60;99.90;;;;;;5056105;28;20032;-55
2022/09/16 02:02:36;;;;;;;6.43;1.42;;;13.60;99.90;;;;;;5055195;28;20052;-55
2022/09/16 02:05:06;;;;;;;6.10;1.98;;;13.70;99.90;;;;;;5054960;28;20033;-54
2022/09/16 02:07:40;;;;;;;6.65;1.67;;;13.60;99.90;;;;;;5055197;28;20029;-54
2022/09/16 02:10:16;;;;;;;4.93;1.33;;;13.60;99.90;;;;;;5055924;28;20055;-53
2022/09/16 02:12:45;;;;;;;6.00;1.75;;;13.60;99.90;;;;;;5055830;28;20049;-54
2022/09/16 02:15:17;;;;;;;10.15;1.85;;;13.60;99.90;;;;;;5054932;28;20047;-54
2022/09/16 02:17:49;;;;;;;5.60;1.50;;;13.60;99.90;;;;;;5055696;28;20064;-54
2022/09/16 02:20:19;;;;;;;4.78;1.90;;;13.60;99.90;;;;;;5055246;28;20509;-54
2022/09/16 02:23:12;;;;;;;6.15;1.70;;;13.50;99.90;;;;;;5055750;28;20127;-54
2022/09/16 02:25:41;;;;;;;7.47;1.60;;;13.40;99.90;;;;;;5055277;28;20025;-54
2022/09/16 02:28:13;;;;;;;8.02;1.95;;;13.30;99.90;;;;;;5055205;28;20179;-54
2022/09/16 02:30:43;;;;;;;8.05;1.67;;;13.30;99.90;;;;;;5055217;28;20158;-54
2022/09/16 02:33:12;;;;;;;6.05;1.70;;;13.20;99.90;;;;;;5055111;28;20036;-54
2022/09/16 02:35:40;;;;;;;9.73;1.63;;;13.20;99.90;;;;;;5055233;28;20028;-54
2022/09/16 02:38:16;;;;;;;5.55;1.98;;;13.20;99.90;;;;;;5054995;28;20406;-54
2022/09/16 02:40:49;;;;;;;6.22;1.50;;;13.10;99.90;;;;;;5053648;28;20033;-54
2022/09/16 02:43:16;;;;;;;9.15;1.80;;;13.10;99.90;;;;;;5055059;28;20455;-54
2022/09/16 02:46:06;;;;;;;9.82;1.75;;;13.10;99.90;;;;;;5054776;28;20094;-54
2022/09/16 02:48:57;;;;;;;9.73;1.85;;;13.10;99.90;;;;;;5055153;28;20029;-53
2022/09/16 02:52:12;;;;;;;8.02;1.83;;;13.10;99.90;;;;;;5055118;28;20519;-54
2022/09/16 02:55:11;;;;;;;9.38;1.90;;;12.90;99.90;;;;;;5012382;28;20116;-54
2022/09/16 02:57:37;;;;;;;3.67;1.50;;;12.90;99.90;;;;;;5045689;28;20044;-55
2022/09/16 03:00:04;;;;;;;10.25;1.73;;;12.80;99.90;;;;;;5054635;28;20071;-54
2022/09/16 03:02:32;;;;;;;9.77;1.40;;;12.80;99.90;;;;;;5054278;28;20409;-54
2022/09/16 03:04:59;;;;;;;5.88;1.50;;;12.80;99.90;;;;;;5054528;28;20067;-54
2022/09/16 03:07:25;;;;;;;8.68;2.00;;;12.70;99.90;;;;;;5055251;28;20029;-54
2022/09/16 03:09:51;;;;;;;5.82;1.27;;;12.70;99.90;;;;;;5055305;28;20682;-54
2022/09/16 03:12:44;;;;;;;5.68;1.48;;;12.70;99.90;;;;;;5055155;28;20036;-54
2022/09/16 03:15:43;;;;;;;6.47;1.70;;;12.70;99.90;;;;;;5054241;28;20036;-54
2022/09/16 03:18:29;;;;;;;4.78;1.38;;;12.60;99.90;;;;;;5054422;28;20036;-54
2022/09/16 03:21:07;;;;;;;5.40;1.50;;;12.70;99.90;;;;;;5054256;28;20072;-54
2022/09/16 03:24:00;;;;;;;3.58;1.38;;;12.70;99.90;;;;;;5054484;28;20037;-55
2022/09/16 03:26:59;;;;;;;9.57;1.67;;;12.70;99.90;;;;;;5053949;28;20040;-54
2022/09/16 03:29:40;;;;;;;8.23;1.45;;;12.80;99.90;;;;;;5018358;28;20025;-54
2022/09/16 03:32:16;;;;;;;10.32;1.70;;;12.90;99.90;;;;;;5053642;28;20111;-54
2022/09/16 03:34:58;;;;;;;5.85;1.40;;;13.00;99.90;;;;;;5054474;28;20021;-55
2022/09/16 03:37:27;;;;;;;5.43;1.93;;;13.10;99.90;;;;;;5053792;28;20064;-55
2022/09/16 03:39:57;;;;;;;7.60;1.70;;;13.00;99.90;;;;;;5054645;28;20259;-54
2022/09/16 03:42:23;;;;;;;5.18;1.35;;;13.00;99.90;;;;;;5054358;28;20021;-55
2022/09/16 03:44:48;;;;;;;5.47;1.65;;;13.00;99.90;;;;;;5054529;28;20036;-55
2022/09/16 03:47:15;;;;;;;10.50;2.13;;;13.00;99.90;;;;;;5053907;28;20032;-54
2022/09/16 03:49:41;;;;;;;9.18;1.40;;;13.20;99.90;;;;;;5053856;28;20033;-55
2022/09/16 03:52:07;;;;;;;7.03;1.52;;;13.20;99.90;;;;;;5052787;28;20460;-55
2022/09/16 03:54:33;;;;;;;5.50;1.70;;;13.20;99.90;;;;;;5053595;28;20075;-55
2022/09/16 03:56:59;;;;;;;3.97;1.52;;;13.30;99.90;;;;;;5054472;28;20075;-54
2022/09/16 03:59:26;;;;;;;6.10;1.88;;;13.30;99.90;;;;;;5053699;28;20074;-55
2022/09/16 04:01:52;;;;;;;6.15;1.73;;;13.40;99.90;;;;;;5053470;28;20405;-54
2022/09/16 04:04:17;;;;;;;4.85;1.63;;;13.30;99.90;;;;;;5054180;28;20082;-55
2022/09/16 04:06:43;;;;;;;6.13;1.67;;;13.30;99.90;;;;;;5054078;28;20112;-55
2022/09/16 04:09:12;;;;;;;7.10;1.98;;;13.40;99.90;;;;;;5053417;28;20105;-54
2022/09/16 04:11:39;;;;;;;5.47;1.58;;;13.40;99.90;;;;;;5054438;28;20078;-54
2022/09/16 04:14:05;;;;;;;6.47;1.83;;;13.40;99.90;;;;;;5054291;28;20060;-53
2022/09/16 04:16:31;;;;;;;11.15;2.10;;;13.30;99.90;;;;;;5052772;28;20037;-54
2022/09/16 04:18:57;;;;;;;5.68;1.67;;;13.40;99.90;;;;;;5054501;28;20473;-54
2022/09/16 04:21:23;;;;;;;12.23;1.67;;;13.50;99.90;;;;;;5054150;28;20108;-54
2022/09/16 04:23:49;;;;;;;11.13;1.75;;;13.50;99.90;;;;;;5054126;28;20029;-54
2022/09/16 04:26:15;;;;;;;4.65;1.30;;;13.50;99.90;;;;;;5053795;28;20451;-55
2022/09/16 04:28:41;;;;;;;7.20;1.58;;;13.50;99.90;;;;;;5054160;28;20084;-55
2022/09/16 04:31:10;;;;;;;7.43;1.58;;;13.50;99.90;;;;;;5053754;28;20498;-54
2022/09/16 04:33:36;;;;;;;8.75;1.45;;;13.50;99.90;;;;;;5053943;28;20044;-54
2022/09/16 04:36:08;;;;;;;4.85;1.45;;;13.50;99.90;;;;;;5052650;28;20369;-55
2022/09/16 04:38:34;;;;;;;8.43;1.90;;;13.60;99.90;;;;;;5071336;28;20131;-54
2022/09/16 04:41:02;;;;;;;5.88;1.50;;;13.40;99.90;;;;;;5057447;28;20029;-54
2022/09/16 04:43:28;;;;;;;4.47;1.33;;;13.30;99.90;;;;;;5057304;28;20033;-57
2022/09/16 04:45:54;;;;;;;7.07;1.75;;;13.30;99.90;;;;;;5057315;28;20025;-54
2022/09/16 04:48:20;;;;;;;6.70;1.65;;;13.20;99.90;;;;;;5057340;28;20033;-54
2022/09/16 04:50:46;;;;;;;7.15;1.70;;;13.20;99.90;;;;;;5056300;28;20029;-53
2022/09/16 04:53:11;;;;;;;6.00;1.50;;;13.20;99.90;;;;;;5057303;28;20068;-55
2022/09/16 04:55:37;;;;;;;8.00;2.28;;;13.10;99.90;;;;;;5057448;28;20100;-54
2022/09/16 04:58:03;;;;;;;9.95;1.73;;;13.10;99.90;;;;;;5057319;28;20029;-54
2022/09/16 05:00:28;;;;;;;4.13;1.50;;;13.00;99.90;;;;;;5056882;28;20049;-55
2022/09/16 05:02:54;;;;;;;5.15;1.48;;;13.00;99.90;;;;;;5056510;28;20493;-55
2022/09/16 05:05:20;;;;;;;10.00;1.58;;;13.00;99.90;;;;;;5057118;28;20029;-55
2022/09/16 05:07:46;;;;;;;7.10;2.17;;;13.00;99.90;;;;;;5057378;28;20037;-54
2022/09/16 05:10:11;;;;;;;6.68;1.45;;;13.00;99.90;;;;;;5057713;28;20055;-54
2022/09/16 05:12:37;;;;;;;7.43;1.67;;;13.00;99.90;;;;;;5057408;28;20041;-54
2022/09/16 05:15:04;;;;;;;10.15;1.60;;;13.20;99.90;;;;;;5055376;28;20053;-54
2022/09/16 05:17:30;;;;;;;7.13;1.67;;;13.20;99.90;;;;;;5056947;28;20029;-54
2022/09/16 05:19:56;;;;;;;7.70;1.67;;;13.10;99.90;;;;;;5057322;28;20021;-54
2022/09/16 05:22:21;;;;;;;9.50;1.60;;;13.10;99.90;;;;;;5057563;28;20520;-53
2022/09/16 05:24:47;;;;;;;7.43;1.77;;;13.10;99.90;;;;;;5056992;28;20025;-53
2022/09/16 05:27:13;;;;;;;5.30;1.95;;;13.10;99.90;;;;;;5057138;28;20044;-53
2022/09/16 05:29:39;;;;;;;7.35;1.33;;;13.30;99.90;;;;;;5057056;28;20024;-53
2022/09/16 05:32:05;;;;;;;6.88;1.38;;;13.40;99.90;;;;;;5056614;28;20032;-53
2022/09/16 05:34:30;;;;;;;6.22;1.40;;;13.30;99.90;;;;;;5057114;28;20255;-53
2022/09/16 05:36:56;;;;;;;4.07;1.30;;;13.40;99.90;;;;;;5056337;28;20057;-53
2022/09/16 05:39:23;;;;;;;8.10;1.40;;;13.40;99.90;;;;;;5051200;28;20432;-55
2022/09/16 05:41:49;;;;;;;5.88;1.42;;;13.40;99.90;;;;;;5047801;28;20035;-54
2022/09/16 05:44:15;;;;;;;5.63;1.00;;;13.40;99.90;;;;;;5056300;28;20017;-53
2022/09/16 05:46:41;;;;;;;7.75;1.10;;;13.40;99.90;;;;;;5055276;28;20017;-52
2022/09/16 05:49:07;;;;;;;5.43;1.35;;;13.50;99.90;;;;;;5056458;28;20470;-53
2022/09/16 05:51:33;;;;;;;5.95;1.48;;;13.50;99.90;;;;;;5054645;28;20136;-53
2022/09/16 05:53:59;;;;;;;4.30;1.05;;;13.60;99.90;;;;;;5052029;28;20076;-55
2022/09/16 05:56:27;;;;;;;8.38;0.95;;;13.50;99.90;;;;;;5049307;28;20025;-52
2022/09/16 05:58:54;;;;;;;3.83;0.90;;;13.50;99.90;;;;;;5045149;28;20127;-54
2022/09/16 06:01:23;;;;;;;4.57;1.00;;;13.60;99.90;;;;;;5051646;28;20041;-54
2022/09/16 06:03:50;;;;;;;4.85;0.80;;;13.70;99.90;;;;;;5048938;28;21593;-52
2022/09/16 06:06:35;;;;;;;7.68;1.30;;;13.70;99.90;;;;;;5041405;28;20117;-54
2022/09/16 06:09:04;;;;;;;8.05;1.45;;;13.90;99.90;;;;;;5046665;28;20033;-54
2022/09/16 06:11:30;;;;;;;4.85;0.70;;;13.90;99.90;;;;;;5042940;28;20521;-54
2022/09/16 06:13:58;;;;;;;8.40;1.30;;;13.90;99.90;;;;;;5046059;28;20025;-54
2022/09/16 06:16:26;;;;;;;4.60;0.80;;;14.10;99.90;;;;;;5040039;28;20651;-53
2022/09/16 06:18:53;;;;;;;11.27;0.90;;;14.00;99.90;;;;;;5040074;28;20527;-54
2022/09/16 06:21:19;;;;;;;4.72;0.77;;;14.00;99.90;;;;;;5039249;28;20025;-54
2022/09/16 06:23:45;;;;;;;4.65;1.00;;;13.90;99.90;;;;;;5031991;28;20036;-54
2022/09/16 06:26:15;;;;;;;2.25;0.65;;;14.00;99.90;;;;;;5038962;28;20036;-55
2022/09/16 06:28:41;;;;;;;4.32;1.10;;;13.90;99.90;;;;;;5042811;28;20037;-55
2022/09/16 06:31:12;;;;;;;5.10;0.80;;;13.90;99.90;;;;;;5041496;28;20897;-55
2022/09/16 06:33:39;;;;;;;3.97;0.90;;;14.00;99.90;;;;;;5041183;28;20567;-54
2022/09/16 06:36:11;;;;;;;7.85;0.82;;;14.10;99.90;;;;;;5037835;28;20465;-57
2022/09/16 06:38:37;;;;;;;5.30;0.90;;;14.20;99.90;;;;;;5033194;28;20029;-55
2022/09/16 06:41:06;;;;;;;5.22;0.70;;;14.20;99.90;;;;;;5029518;28;20044;-55
2022/09/16 06:43:32;;;;;;;3.53;0.80;;;14.30;99.90;;;;;;5037555;28;20131;-54
2022/09/16 06:46:12;;;;;;;4.63;0.75;;;14.30;99.90;;;;;;5041607;28;20036;-54
2022/09/16 06:48:39;;;;;;;3.88;0.60;;;14.30;99.90;;;;;;5040079;28;20469;-55
2022/09/16 06:51:09;;;;;;;5.18;0.98;;;14.20;99.90;;;;;;5044942;28;20091;-54
2022/09/16 06:53:34;;;;;;;3.28;0.70;;;14.20;99.90;;;;;;5040132;28;20028;-54
2022/09/16 06:56:02;;;;;;;3.47;0.88;;;14.20;99.90;;;;;;5037693;28;20029;-54
2022/09/16 06:58:31;;;;;;;4.88;0.70;;;14.30;99.90;;;;;;5033522;28;20033;-53
2022/09/16 07:00:57;;;;;;;3.70;0.60;;;14.30;99.90;;;;;;5033091;28;20101;-55
2022/09/16 07:03:22;;;;;;;4.53;0.60;;;14.40;99.90;;;;;;5038889;28;20572;-55
2022/09/16 07:06:00;;;;;;;5.03;0.70;;;14.60;99.90;;;;;;5030760;28;20119;-54
2022/09/16 07:08:27;;;;;;;5.15;0.70;;;14.70;99.90;;;;;;5037087;28;20029;-53
2022/09/16 07:11:09;;;;;;;5.35;0.85;;;14.80;99.90;;;;;;5032223;28;20678;-53
2022/09/16 07:13:35;;;;;;;4.47;0.60;;;14.80;99.90;;;;;;5038945;28;20055;-53
2022/09/16 07:16:03;;;;;;;3.35;0.77;;;14.60;99.90;;;;;;5039551;28;20513;-53
2022/09/16 07:18:29;;;;;;;3.90;0.80;;;14.60;99.90;;;;;;5038714;28;20055;-53
2022/09/16 07:21:04;;;;;;;5.43;0.80;;;14.60;99.90;;;;;;5038220;28;20024;-54
2022/09/16 07:23:35;;;;;;;4.85;0.80;;;14.60;99.90;;;;;;5041163;28;20085;-55
2022/09/16 07:26:05;;;;;;;2.95;0.60;;;14.70;99.90;;;;;;5039073;28;20472;-54
2022/09/16 07:28:31;;;;;;;4.18;0.82;;;14.80;99.90;;;;;;5041045;28;20044;-55
2022/09/16 07:31:02;;;;;;;5.18;0.80;;;14.90;99.90;;;;;;5037889;28;20039;-55
2022/09/16 07:33:29;;;;;;;7.70;0.90;;;15.00;99.90;;;;;;5037217;28;20110;-55
2022/09/16 07:35:59;;;;;;;3.70;1.00;;;15.40;99.90;;;;;;5042657;28;20029;-55
2022/09/16 07:38:25;;;;;;;4.85;0.95;;;15.50;99.90;;;;;;5041218;28;20025;-55
2022/09/16 07:40:50;;;;;;;5.10;0.70;;;15.80;99.90;;;;;;5043600;28;20110;-55
2022/09/16 07:43:16;;;;;;;16.52;1.75;;;16.30;99.90;;;;;;5043577;28;20037;-56
2022/09/16 07:45:42;;;;;;;2.83;0.90;;;16.80;99.90;;;;;;5041093;28;20529;-55
2022/09/16 07:48:08;;;;;;;8.75;0.90;;;17.00;99.90;;;;;;5045035;28;20021;-55
2022/09/16 07:50:33;;;;;;;4.47;1.00;;;16.90;99.90;;;;;;5046132;28;20029;-55
2022/09/16 07:52:59;;;;;;;7.80;1.70;;;16.70;99.90;;;;;;5040979;28;20055;-55
2022/09/16 07:55:26;;;;;;;4.47;0.90;;;16.50;99.90;;;;;;5032332;28;21211;-55
2022/09/16 07:57:52;;;;;;;4.18;0.90;;;16.40;99.90;;;;;;5032827;28;20155;-55
2022/09/16 08:00:18;;;;;;;5.80;1.55;;;16.40;99.90;;;;;;5038123;28;20029;-55
2022/09/16 08:02:43;;;;;;;5.15;1.10;;;16.30;99.90;;;;;;5042268;28;20485;-55
2022/09/16 08:05:09;;;;;;;5.55;1.00;;;16.20;99.90;;;;;;5039768;28;20029;-55
2022/09/16 08:07:36;;;;;;;5.00;1.25;;;16.20;99.90;;;;;;5038039;28;20024;-54
2022/09/16 08:10:02;;;;;;;8.20;1.30;;;15.90;99.90;;;;;;5035206;28;20029;-55
2022/09/16 08:12:32;;;;;;;3.78;0.80;;;15.90;99.90;;;;;;5036859;28;20193;-55
2022/09/16 08:14:58;;;;;;;5.70;1.20;;;15.90;99.90;;;;;;5035713;28;20047;-54
2022/09/16 08:17:25;;;;;;;9.90;1.40;;;15.70;99.90;;;;;;5037497;28;20029;-56
2022/09/16 08:19:51;;;;;;;9.07;1.83;;;15.70;99.90;;;;;;5033661;28;20017;-56
2022/09/16 08:22:16;;;;;;;8.10;1.80;;;15.60;99.90;;;;;;5034397;28;20472;-59
2022/09/16 08:24:42;;;;;;;12.18;1.92;;;15.30;99.90;;;;;;5033404;28;20059;-60
2022/09/16 08:27:08;;;;;;;7.53;1.20;;;15.20;99.90;;;;;;5034652;28;20028;-61
2022/09/16 08:29:34;;;;;;;6.65;0.95;;;15.10;99.90;;;;;;5036158;28;20031;-58
2022/09/16 08:31:59;;;;;;;5.88;1.00;;;15.10;99.90;;;;;;5030218;28;20033;-59
2022/09/16 08:34:25;;;;;;;3.20;1.20;;;14.90;99.90;;;;;;5030895;28;21013;-58
2022/09/16 08:36:51;;;;;;;4.57;1.20;;;14.80;99.90;;;;;;5037272;28;20098;-59
2022/09/16 08:39:17;;;;;;;6.53;1.10;;;15.00;99.90;;;;;;5038120;28;20396;-57
2022/09/16 08:41:54;;;;;;;4.90;1.17;;;15.00;99.90;;;;;;5037601;28;20060;-57
2022/09/16 08:44:41;;;;;;;3.63;0.82;;;15.10;99.90;;;;;;5041533;28;20396;-56
2022/09/16 08:47:37;;;;;;;4.35;1.08;;;15.10;99.90;;;;;;5043317;28;20029;-55
2022/09/16 08:50:10;;;;;;;6.68;1.05;;;15.20;99.90;;;;;;5039376;28;20391;-56
2022/09/16 08:52:39;;;;;;;6.53;2.95;;;15.40;99.90;;;;;;5041543;28;20036;-57
2022/09/16 08:55:30;;;;;;;11.45;3.90;;;15.80;99.90;;;;;;5038914;28;20029;-57
2022/09/16 08:58:17;;;;;;;8.05;3.25;;;17.20;99.90;;;;;;5039287;28;20028;-57
2022/09/16 09:00:46;;;;;;;6.70;2.20;;;18.70;99.90;;;;;;5034145;28;20448;-58
2022/09/16 09:03:17;;;;;;;4.72;1.40;;;19.70;99.90;;;;;;5043318;28;21516;-57
2022/09/16 09:05:56;;;;;;;2.90;1.02;;;20.30;99.90;;;;;;5040340;28;20033;-58
2022/09/16 09:08:30;;;;;;;5.90;1.38;;;20.30;99.90;;;;;;5044644;28;20422;-57
2022/09/16 09:11:16;;;;;;;5.13;1.17;;;20.60;99.90;;;;;;5040715;28;20060;-57
2022/09/16 09:14:09;;;;;;;5.80;1.15;;;20.50;99.90;;;;;;5041756;28;20157;-55
2022/09/16 09:16:59;;;;;;;3.72;1.20;;;19.60;99.90;;;;;;5045098;28;20029;-57
2022/09/16 09:19:28;;;;;;;5.05;1.00;;;18.80;99.90;;;;;;5043467;28;20027;-56
2022/09/16 09:22:03;;;;;;;6.38;1.20;;;18.80;99.90;;;;;;5037035;28;20390;-57
2022/09/16 09:24:47;;;;;;;6.72;1.80;;;18.60;99.90;;;;;;5038163;28;20055;-57
2022/09/16 09:27:33;;;;;;;6.28;1.15;;;19.30;99.90;;;;;;5041251;28;20497;-56
2022/09/16 09:30:15;;;;;;;3.03;0.98;;;18.70;99.90;;;;;;5040106;28;20029;-56
2022/09/16 09:32:52;;;;;;;3.50;1.00;;;18.20;99.90;;;;;;5038767;28;20088;-56
2022/09/16 09:35:48;;;;;;;4.40;1.17;;;17.70;99.90;;;;;;5038289;28;20028;-54
2022/09/16 09:38:57;;;;;;;4.60;1.63;;;17.60;99.90;;;;;;5023193;28;20044;-54
2022/09/16 09:41:35;;;;;;;4.55;0.80;;;17.40;99.90;;;;;;5049563;28;20017;-56
2022/09/16 09:44:58;;;;;;;7.60;1.85;;;17.10;99.90;;;;;;5038557;28;20025;-56
2022/09/16 09:47:32;;;;;;;4.72;0.90;;;16.90;99.90;;;;;;4957755;28;20070;-57
2022/09/16 09:50:11;;;;;;;6.18;1.00;;;16.90;99.90;;;;;;4965228;28;20534;-56
2022/09/16 09:52:46;;;;;;;3.60;1.00;;;16.90;99.90;;;;;;5006515;28;20747;-54
2022/09/16 09:55:18;;;;;;;4.43;1.23;;;16.90;99.90;;;;;;5036751;28;20811;-55
2022/09/16 09:58:16;;;;;;;5.20;0.90;;;17.00;99.90;;;;;;5033865;28;20028;-56
2022/09/16 10:00:42;;;;;;;3.60;0.80;;;16.90;99.90;;;;;;5006828;28;20283;-56
2022/09/16 10:03:13;;;;;;;6.43;1.25;;;16.70;99.90;;;;;;5038001;28;20033;-61
2022/09/16 10:05:40;;;;;;;2.63;1.02;;;16.50;99.90;;;;;;5036439;28;20658;-56
2022/09/16 10:08:28;;;;;;;2.58;0.80;;;16.40;99.90;;;;;;5032359;28;20469;-56
2022/09/16 10:11:00;;;;;;;5.15;1.20;;;16.30;99.90;;;;;;5036337;28;20029;-55
2022/09/16 10:13:28;;;;;;;2.95;0.88;;;16.40;99.90;;;;;;5033957;28;20073;-56
2022/09/16 10:16:09;;;;;;;4.05;0.63;;;16.90;99.90;;;;;;5038010;28;20025;-55
2022/09/16 10:18:36;;;;;;;1.73;0.45;;;17.40;99.90;;;;;;5038600;28;20364;-55
2022/09/16 10:21:09;;;;;;;3.03;0.70;;;17.90;99.90;;;;;;5040400;28;20441;-55
2022/09/16 10:23:35;;;;;;;2.55;0.65;;;19.10;99.90;;;;;;5036575;28;20031;-55
2022/09/16 10:26:13;;;;;;;4.25;0.68;;;19.70;99.90;;;;;;5035740;28;20382;-57
2022/09/16 10:28:39;;;;;;;8.48;0.93;;;19.90;99.90;;;;;;5036172;28;20626;-57
2022/09/16 10:31:07;;;;;;;2.53;0.73;;;19.70;99.90;;;;;;5032817;28;20041;-56
2022/09/16 10:33:35;;;;;;;3.70;0.80;;;20.30;99.90;;;;;;5034951;28;20670;-56
2022/09/16 10:36:21;;;;;;;5.35;0.68;;;20.80;99.90;;;;;;5036423;28;20064;-57
2022/09/16 10:38:54;;;;;;;6.10;0.85;;;21.30;99.90;;;;;;5037012;28;20036;-56
2022/09/16 10:41:29;;;;;;;4.07;0.60;;;21.30;99.90;;;;;;5039127;28;20033;-56
2022/09/16 10:44:13;;;;;;;4.22;0.52;;;22.20;99.90;;;;;;5039592;28;20928;-57
2022/09/16 10:46:55;;;;;;;3.85;0.82;;;22.80;99.90;;;;;;5040904;28;20397;-57
2022/09/16 10:49:30;;;;;;;3.13;0.60;;;22.70;99.90;;;;;;5038015;28;20505;-57
2022/09/16 10:52:07;;;;;;;1.63;0.50;;;23.20;99.90;;;;;;5036261;28;20040;-57
2022/09/16 10:54:32;;;;;;;4.60;0.60;;;23.60;99.90;;;;;;5044076;28;20025;-57
2022/09/16 10:56:58;;;;;;;1.38;0.65;;;23.60;99.90;;;;;;5046540;28;20167;-57
2022/09/16 10:59:24;;;;;;;5.40;0.82;;;23.40;99.90;;;;;;5045506;28;20401;-57
2022/09/16 11:02:37;;;;;;;3.47;0.50;;;22.90;99.90;;;;;;5042399;28;20033;-57
2022/09/16 11:05:25;;;;;;;2.80;0.88;;;22.30;99.90;;;;;;4979233;28;20038;-55
2022/09/16 11:08:26;;;;;;;4.28;0.68;;;22.90;99.90;;;;;;4970175;28;20070;-57
2022/09/16 11:10:54;;;;;;;2.50;0.75;;;22.20;99.90;;;;;;5019270;28;20041;-56
2022/09/16 11:13:56;;;;;;;1.98;0.60;;;21.50;99.90;;;;;;5042824;28;20215;-56
2022/09/16 11:16:22;;;;;;;3.30;0.63;;;20.90;99.90;;;;;;5037087;28;20378;-55
2022/09/16 11:19:19;;;;;;;4.75;0.70;;;19.90;99.90;;;;;;5040209;28;20070;-55
2022/09/16 11:22:12;;;;;;;2.20;0.60;;;18.90;99.90;;;;;;5054313;28;20033;-55
2022/09/16 11:24:47;;;;;;;;;;;17.90;99.90;;;;;;5056756;28;20554;-54
2022/09/16 11:27:40;;;;;;;7.82;2.05;;;17.30;99.90;;;;;;5035103;28;20052;-54
2022/09/16 11:30:24;;;;;;;4.38;1.05;;;17.10;99.90;;;;;;5040902;28;20037;-54
2022/09/16 11:33:21;;;;;;;7.10;1.13;;;17.20;99.90;;;;;;5039257;28;20676;-54
2022/09/16 11:35:58;;;;;;;7.43;1.50;;;17.80;99.90;;;;;;5041816;28;20028;-53
2022/09/16 11:38:37;;;;;;;1.55;0.73;;;18.10;99.90;;;;;;5040711;28;20037;-55
2022/09/16 11:41:12;;;;;;;4.18;1.00;;;18.20;99.90;;;;;;5037234;28;20108;-55
2022/09/16 11:44:02;;;;;;;2.63;0.63;;;17.80;99.90;;;;;;5041957;28;20037;-55
2022/09/16 11:46:56;;;;;;;5.00;1.05;;;17.50;99.90;;;;;;5044128;28;20032;-55
2022/09/16 11:49:30;;;;;;;3.55;1.00;;;17.50;99.90;;;;;;5047999;28;20176;-55
2022/09/16 11:52:26;;;;;;;5.22;0.90;;;17.40;99.90;;;;;;5047352;28;20025;-54
2022/09/16 11:55:11;;;;;;;3.45;0.85;;;17.50;99.90;;;;;;5047384;28;20044;-54
2022/09/16 11:57:47;;;;;;;4.57;0.65;;;17.90;99.90;;;;;;5048568;28;20440;-55
2022/09/16 12:00:16;;;;;;;3.03;0.70;;;18.20;99.90;;;;;;5040519;28;20450;-55
2022/09/16 12:02:45;;;;;;;2.47;0.60;;;18.10;99.90;;;;;;5056586;28;20553;-55
2022/09/16 12:05:13;;;;;;;3.40;0.85;;;18.10;99.90;;;;;;5042921;28;20029;-54
2022/09/16 12:07:47;;;;;;;3.80;0.90;;;18.10;99.90;;;;;;5047913;28;20033;-55
2022/09/16 12:10:31;;;;;;;5.18;1.00;;;18.00;99.90;;;;;;5046566;28;20388;-54
2022/09/16 12:13:05;;;;;;;6.18;0.70;;;18.00;99.90;;;;;;5047839;28;20039;-54
2022/09/16 12:15:41;;;;;;;3.70;1.33;;;18.20;99.90;;;;;;5048143;28;20040;-54
2022/09/16 12:18:17;;;;;;;4.82;1.10;;;18.20;99.90;;;;;;5047960;28;20033;-53
2022/09/16 12:21:27;;;;;;;2.35;0.63;;;18.30;99.90;;;;;;5050130;28;21518;-53
2022/09/16 12:24:20;;;;;;;5.28;0.80;;;18.10;99.90;;;;;;5027626;28;20124;-55
2022/09/16 12:26:55;;;;;;;;;;;17.80;99.90;;;;;;5049354;28;20036;-55
2022/09/16 12:29:25;;;;;;;6.07;0.80;;;17.90;99.90;;;;;;5047419;28;19920;-56
2022/09/16 12:32:03;;;;;;;4.60;0.90;;;18.30;99.90;;;;;;5048527;28;20484;-54
2022/09/16 12:34:38;;;;;;;2.88;0.73;;;18.80;99.90;;;;;;5044163;28;20167;-55
2022/09/16 12:37:20;;;;;;;3.03;0.68;;;19.10;99.90;;;;;;5040891;28;20025;-56
2022/09/16 12:39:48;;;;;;;3.78;0.63;;;19.90;99.90;;;;;;5044139;28;20025;-56
2022/09/16 12:42:32;;;;;;;5.22;0.80;;;21.00;99.90;;;;;;5040380;28;20032;-56
2022/09/16 12:45:29;;;;;;;2.75;0.70;;;21.20;99.90;;;;;;5045306;28;20490;-56
2022/09/16 12:48:03;;;;;;;4.05;0.95;;;20.40;99.90;;;;;;5045977;28;20577;-55
2022/09/16 12:50:47;;;;;;;2.85;0.70;;;20.60;99.90;;;;;;5044390;28;20089;-55
2022/09/16 12:53:13;;;;;;;7.05;1.00;;;21.30;99.90;;;;;;5043896;28;20037;-56
2022/09/16 12:56:06;;;;;;;3.50;0.80;;;22.30;99.90;;;;;;5044033;28;20275;-56
2022/09/16 12:59:08;;;;;;;4.18;0.73;;;22.60;99.90;;;;;;5022996;28;20568;-56
2022/09/16 13:02:00;;;;;;;4.93;0.80;;;22.40;99.90;;;;;;4973690;28;20085;-56
2022/09/16 13:04:49;;;;;;;3.13;0.88;;;21.00;99.90;;;;;;5039926;28;20056;-55
2022/09/16 13:07:20;;;;;;;4.50;0.60;;;19.90;99.90;;;;;;5041933;28;20047;-54
2022/09/16 13:09:46;;;;;;;4.63;0.50;;;18.20;99.90;;;;;;5035672;28;20111;-54
2022/09/16 13:12:26;;;;;;;7.28;0.75;;;17.30;99.90;;;;;;5032988;28;20052;-53
2022/09/16 13:14:55;;;;;;;7.78;1.00;;;16.90;99.90;;;;;;5032958;28;20227;-54
2022/09/16 13:17:32;;;;;;;9.93;1.20;;;16.40;99.90;;;;;;5031930;28;20017;-60
2022/09/16 13:20:09;;;;;;;4.45;0.80;;;15.80;99.90;;;;;;5028520;28;20465;-60